Hlavní strana
METAR-TAF:

METAR-TAF

Letiště :

Letiště Řešov-Jasionka

Řešov, Polsko

zeměpisná šířka: 50-06N, zeměpisná délka: 022-03E, výška: 200 m

Aktuální stav počasí

Zpráva byla vytvořena před 28 minutami, v 09:00 UTC
Jihovýchodní vítr 9 kt, proměnlivý mezi východním a jihojihovýchodním
Teplota 14°C
Vlhkost vzduchu 26%
Tlak 1033 hPa
Viditelnost 10 km a více
Žádná oblačnost pod 1500 m, nevyskytují se cumulonimby.

METAR: EPRZ 060900Z 13009KT 100V160 CAVOK 14/M05 Q1033

Čas: 11:28 (09:28 UTC)

Předpověď počasí

Zpráva byla vytvořena před 3 hodinami a 58 minutami, v 05:30 UTC
Předpověď platná od 06 v 06 UTC do 07 v 06 UTC
Východní vítr 8 kt
Viditelnost 10 km a více
Žádná oblačnost pod 1500 m, nevyskytují se cumulonimby.
Změna
od 06 v 06 UTC do 06 v 09 UTC
Jižní vítr 12 kt
Dočasný
od 06 v 09 UTC do 06 v 17 UTC
Jižní vítr 15 kt s nárazy do 25 kt

TAF: EPRZ 060530Z 0606/0706 09008KT CAVOK BECMG 0606/0609 18012KT TEMPO 0609/0617 18015G25KT

Stav a předpovědi počasí z více než 4 000 letišť (zprávy METAR a TAF).

Červené a žluté tečky na mapě představují dostupné meteorologické stanice.

Když kurzor umístíte na tečku, zobrazí se název stanice.

Pak kliknutím zobrazíte stav a předpověď počasí.

Chcete-li změnit mapu, kliknutím na zelené tlačítko se znaménkem +mapu přiblížíte, kliknutím na zelené tlačítko se znaménkem – mapu oddálíte a kliknutím na zelené šipky přejdete na sousední mapy.


METAR-TAF: